CPX654 Details

Departure: The Florida Keys Marathon International Airport (KMTH)
Arrival: Key West International Airport (KEYW)
Route: JANKA


Current Weather Information
KMTH 200853Z AUTO 03007KT 10SM -RA OVC009 23/20 A2992 RMK AO2 SLP132 P0003 60006 T02280200 56019
KEYW 200900Z AUTO 04007KT 10SM FEW013 BKN018 BKN033 21/19 A2995 RMK AO2 T02060194